sensor_id;sensor_type;location;lat;lon;timestamp;pressure;altitude;pressure_sealevel;temperature;humidity
11349;BME280;5729;43.570;27.826;2023-04-21T00:00:50;98627.84;;;10.95;100.00
11349;BME280;5729;43.570;27.826;2023-04-21T00:03:17;98608.16;;;10.90;100.00
11349;BME280;5729;43.570;27.826;2023-04-21T00:05:44;98618.31;;;11.04;100.00
11349;BME280;5729;43.570;27.826;2023-04-21T00:08:10;98623.25;;;10.99;100.00
11349;BME280;5729;43.570;27.826;2023-04-21T00:10:35;98619.41;;;11.00;100.00
11349;BME280;5729;43.570;27.826;2023-04-21T00:13:01;98612.81;;;10.94;100.00
11349;BME280;5729;43.570;27.826;2023-04-21T00:15:26;98615.88;;;10.96;100.00
11349;BME280;5729;43.570;27.826;2023-04-21T00:17:52;98622.25;;;10.77;100.00
11349;BME280;5729;43.570;27.826;2023-04-21T00:20:18;98624.16;;;10.76;100.00
11349;BME280;5729;43.570;27.826;2023-04-21T00:22:44;98624.53;;;10.75;100.00
11349;BME280;5729;43.570;27.826;2023-04-21T00:25:09;98619.91;;;10.75;100.00
11349;BME280;5729;43.570;27.826;2023-04-21T00:27:35;98607.03;;;10.62;100.00
11349;BME280;5729;43.570;27.826;2023-04-21T00:30:00;98609.31;;;10.56;100.00
11349;BME280;5729;43.570;27.826;2023-04-21T00:32:26;98616.69;;;10.63;100.00
11349;BME280;5729;43.570;27.826;2023-04-21T00:34:51;98620.91;;;10.60;100.00
11349;BME280;5729;43.570;27.826;2023-04-21T00:37:17;98615.19;;;10.65;100.00
11349;BME280;5729;43.570;27.826;2023-04-21T00:39:42;98610.63;;;10.69;100.00
11349;BME280;5729;43.570;27.826;2023-04-21T00:42:08;98617.16;;;10.68;100.00
11349;BME280;5729;43.570;27.826;2023-04-21T00:44:33;98614.03;;;10.66;100.00
11349;BME280;5729;43.570;27.826;2023-04-21T00:46:58;98602.13;;;10.67;100.00
11349;BME280;5729;43.570;27.826;2023-04-21T00:49:25;98606.91;;;10.51;100.00
11349;BME280;5729;43.570;27.826;2023-04-21T00:51:51;98603.06;;;10.48;100.00
11349;BME280;5729;43.570;27.826;2023-04-21T00:54:17;98607.69;;;10.51;100.00
11349;BME280;5729;43.570;27.826;2023-04-21T00:56:43;98591.38;;;10.37;100.00
11349;BME280;5729;43.570;27.826;2023-04-21T00:59:09;98599.94;;;10.46;100.00
11349;BME280;5729;43.570;27.826;2023-04-21T01:01:35;98604.69;;;10.57;100.00
11349;BME280;5729;43.570;27.826;2023-04-21T01:04:02;98597.03;;;10.62;100.00
11349;BME280;5729;43.570;27.826;2023-04-21T01:06:31;98595.53;;;10.65;100.00
11349;BME280;5729;43.570;27.826;2023-04-21T01:08:58;98588.81;;;10.48;100.00
11349;BME280;5729;43.570;27.826;2023-04-21T01:11:23;98578.16;;;10.59;100.00
11349;BME280;5729;43.570;27.826;2023-04-21T01:13:52;98602.16;;;10.71;100.00
11349;BME280;5729;43.570;27.826;2023-04-21T01:16:19;98595.94;;;10.67;100.00
11349;BME280;5729;43.570;27.826;2023-04-21T01:18:46;98593.31;;;10.70;100.00
11349;BME280;5729;43.570;27.826;2023-04-21T01:21:12;98591.03;;;10.76;100.00
11349;BME280;5729;43.570;27.826;2023-04-21T01:23:41;98589.63;;;10.89;100.00
11349;BME280;5729;43.570;27.826;2023-04-21T01:26:06;98581.59;;;10.96;100.00
11349;BME280;5729;43.570;27.826;2023-04-21T01:28:32;98583.06;;;10.86;100.00
11349;BME280;5729;43.570;27.826;2023-04-21T01:30:58;98578.56;;;10.98;100.00
11349;BME280;5729;43.570;27.826;2023-04-21T01:33:24;98582.09;;;11.05;100.00
11349;BME280;5729;43.570;27.826;2023-04-21T01:35:49;98589.06;;;11.10;100.00
11349;BME280;5729;43.570;27.826;2023-04-21T01:38:15;98592.50;;;11.07;100.00
11349;BME280;5729;43.570;27.826;2023-04-21T01:40:46;98586.38;;;11.10;100.00
11349;BME280;5729;43.570;27.826;2023-04-21T01:43:13;98594.13;;;11.15;100.00
11349;BME280;5729;43.570;27.826;2023-04-21T01:45:39;98595.69;;;11.19;100.00
11349;BME280;5729;43.570;27.826;2023-04-21T01:48:04;98587.31;;;11.28;100.00
11349;BME280;5729;43.570;27.826;2023-04-21T01:50:30;98583.84;;;11.31;100.00
11349;BME280;5729;43.570;27.826;2023-04-21T01:52:55;98592.41;;;11.37;100.00
11349;BME280;5729;43.570;27.826;2023-04-21T01:55:21;98579.28;;;11.35;100.00
11349;BME280;5729;43.570;27.826;2023-04-21T01:57:46;98572.78;;;11.43;100.00
11349;BME280;5729;43.570;27.826;2023-04-21T02:00:12;98565.06;;;11.38;100.00
11349;BME280;5729;43.570;27.826;2023-04-21T02:02:38;98573.94;;;11.42;100.00
11349;BME280;5729;43.570;27.826;2023-04-21T02:05:04;98572.81;;;11.47;100.00
11349;BME280;5729;43.570;27.826;2023-04-21T02:07:30;98570.09;;;11.40;100.00
11349;BME280;5729;43.570;27.826;2023-04-21T02:09:55;98559.47;;;11.17;100.00
11349;BME280;5729;43.570;27.826;2023-04-21T02:12:21;98559.44;;;11.13;100.00
11349;BME280;5729;43.570;27.826;2023-04-21T02:14:46;98543.13;;;10.99;100.00
11349;BME280;5729;43.570;27.826;2023-04-21T02:17:12;98553.19;;;11.02;100.00
11349;BME280;5729;43.570;27.826;2023-04-21T02:19:38;98543.97;;;11.07;100.00
11349;BME280;5729;43.570;27.826;2023-04-21T02:22:04;98552.50;;;11.12;100.00
11349;BME280;5729;43.570;27.826;2023-04-21T02:24:31;98554.78;;;11.10;100.00
11349;BME280;5729;43.570;27.826;2023-04-21T02:26:56;98559.88;;;11.19;100.00
11349;BME280;5729;43.570;27.826;2023-04-21T02:29:22;98565.75;;;11.28;100.00
11349;BME280;5729;43.570;27.826;2023-04-21T02:31:48;98546.03;;;11.24;100.00
11349;BME280;5729;43.570;27.826;2023-04-21T02:34:13;98560.34;;;11.32;100.00
11349;BME280;5729;43.570;27.826;2023-04-21T02:36:39;98551.03;;;11.22;100.00
11349;BME280;5729;43.570;27.826;2023-04-21T02:39:04;98566.56;;;11.36;100.00
11349;BME280;5729;43.570;27.826;2023-04-21T02:41:30;98563.50;;;11.37;100.00
11349;BME280;5729;43.570;27.826;2023-04-21T02:43:55;98566.19;;;11.37;100.00
11349;BME280;5729;43.570;27.826;2023-04-21T02:46:21;98561.97;;;11.40;100.00
11349;BME280;5729;43.570;27.826;2023-04-21T02:48:46;98555.41;;;11.37;100.00
11349;BME280;5729;43.570;27.826;2023-04-21T02:51:12;98555.81;;;11.39;100.00
11349;BME280;5729;43.570;27.826;2023-04-21T02:53:38;98556.59;;;11.40;100.00
11349;BME280;5729;43.570;27.826;2023-04-21T02:56:08;98555.28;;;11.23;100.00
11349;BME280;5729;43.570;27.826;2023-04-21T02:58:34;98559.13;;;11.22;100.00
11349;BME280;5729;43.570;27.826;2023-04-21T03:01:01;98564.88;;;11.20;100.00
11349;BME280;5729;43.570;27.826;2023-04-21T03:03:27;98568.69;;;11.12;100.00
11349;BME280;5729;43.570;27.826;2023-04-21T03:05:57;98567.34;;;10.96;100.00
11349;BME280;5729;43.570;27.826;2023-04-21T03:08:23;98563.13;;;10.95;100.00
11349;BME280;5729;43.570;27.826;2023-04-21T03:10:48;98554.59;;;10.89;100.00
11349;BME280;5729;43.570;27.826;2023-04-21T03:13:14;98567.22;;;10.81;100.00
11349;BME280;5729;43.570;27.826;2023-04-21T03:15:39;98541.38;;;10.77;100.00
11349;BME280;5729;43.570;27.826;2023-04-21T03:18:05;98558.53;;;10.99;100.00
11349;BME280;5729;43.570;27.826;2023-04-21T03:20:30;98559.00;;;11.08;100.00
11349;BME280;5729;43.570;27.826;2023-04-21T03:22:56;98561.38;;;11.13;100.00
11349;BME280;5729;43.570;27.826;2023-04-21T03:25:22;98558.25;;;11.11;100.00
11349;BME280;5729;43.570;27.826;2023-04-21T03:27:48;98569.09;;;11.14;100.00
11349;BME280;5729;43.570;27.826;2023-04-21T03:30:13;98564.97;;;11.27;100.00
11349;BME280;5729;43.570;27.826;2023-04-21T03:32:38;98563.06;;;11.28;100.00
11349;BME280;5729;43.570;27.826;2023-04-21T03:35:04;98556.47;;;11.25;100.00
11349;BME280;5729;43.570;27.826;2023-04-21T03:37:30;98567.66;;;11.27;100.00
11349;BME280;5729;43.570;27.826;2023-04-21T03:39:56;98566.13;;;11.26;100.00
11349;BME280;5729;43.570;27.826;2023-04-21T03:42:21;98561.78;;;11.18;100.00
11349;BME280;5729;43.570;27.826;2023-04-21T03:44:47;98562.28;;;11.27;100.00
11349;BME280;5729;43.570;27.826;2023-04-21T03:47:12;98573.44;;;11.26;100.00
11349;BME280;5729;43.570;27.826;2023-04-21T03:49:37;98575.22;;;11.11;100.00
11349;BME280;5729;43.570;27.826;2023-04-21T03:52:03;98581.88;;;11.24;100.00
11349;BME280;5729;43.570;27.826;2023-04-21T03:54:28;98575.34;;;11.25;100.00
11349;BME280;5729;43.570;27.826;2023-04-21T03:56:54;98578.88;;;11.33;100.00
11349;BME280;5729;43.570;27.826;2023-04-21T03:59:20;98572.63;;;11.22;100.00
11349;BME280;5729;43.570;27.826;2023-04-21T04:01:45;98579.53;;;11.19;100.00
11349;BME280;5729;43.570;27.826;2023-04-21T04:04:11;98568.00;;;11.22;100.00
11349;BME280;5729;43.570;27.826;2023-04-21T04:06:36;98570.72;;;11.26;100.00
11349;BME280;5729;43.570;27.826;2023-04-21T04:09:02;98564.94;;;11.24;100.00
11349;BME280;5729;43.570;27.826;2023-04-21T04:11:29;98571.91;;;11.28;100.00
11349;BME280;5729;43.570;27.826;2023-04-21T04:13:55;98566.03;;;11.16;100.00
11349;BME280;5729;43.570;27.826;2023-04-21T04:16:20;98567.97;;;11.19;100.00
11349;BME280;5729;43.570;27.826;2023-04-21T04:18:46;98575.78;;;11.31;100.00
11349;BME280;5729;43.570;27.826;2023-04-21T04:21:11;98585.69;;;11.20;100.00
11349;BME280;5729;43.570;27.826;2023-04-21T04:23:36;98596.16;;;11.25;100.00
11349;BME280;5729;43.570;27.826;2023-04-21T04:26:02;98595.38;;;11.24;100.00
11349;BME280;5729;43.570;27.826;2023-04-21T04:28:30;98593.25;;;11.04;100.00
11349;BME280;5729;43.570;27.826;2023-04-21T04:30:55;98607.47;;;11.01;100.00
11349;BME280;5729;43.570;27.826;2023-04-21T04:33:21;98604.25;;;10.88;100.00
11349;BME280;5729;43.570;27.826;2023-04-21T04:35:46;98602.31;;;10.51;100.00
11349;BME280;5729;43.570;27.826;2023-04-21T04:38:12;98607.75;;;10.55;100.00
11349;BME280;5729;43.570;27.826;2023-04-21T04:40:39;98612.56;;;10.12;100.00
11349;BME280;5729;43.570;27.826;2023-04-21T04:43:04;98601.91;;;10.19;100.00
11349;BME280;5729;43.570;27.826;2023-04-21T04:45:30;98583.06;;;10.19;100.00
11349;BME280;5729;43.570;27.826;2023-04-21T04:47:57;98600.25;;;10.41;100.00
11349;BME280;5729;43.570;27.826;2023-04-21T04:50:23;98605.28;;;10.43;100.00
11349;BME280;5729;43.570;27.826;2023-04-21T04:52:49;98606.72;;;10.33;100.00
11349;BME280;5729;43.570;27.826;2023-04-21T04:55:15;98615.88;;;10.29;100.00
11349;BME280;5729;43.570;27.826;2023-04-21T04:57:40;98615.38;;;10.19;100.00
11349;BME280;5729;43.570;27.826;2023-04-21T05:00:07;98626.97;;;10.24;100.00
11349;BME280;5729;43.570;27.826;2023-04-21T05:02:38;98633.63;;;10.07;100.00
11349;BME280;5729;43.570;27.826;2023-04-21T05:05:04;98643.38;;;9.89;100.00
11349;BME280;5729;43.570;27.826;2023-04-21T05:07:30;98646.56;;;9.98;100.00
11349;BME280;5729;43.570;27.826;2023-04-21T05:09:56;98659.59;;;9.92;100.00
11349;BME280;5729;43.570;27.826;2023-04-21T05:12:21;98656.75;;;9.85;100.00
11349;BME280;5729;43.570;27.826;2023-04-21T05:14:47;98645.91;;;9.78;100.00
11349;BME280;5729;43.570;27.826;2023-04-21T05:17:12;98650.78;;;9.72;100.00
11349;BME280;5729;43.570;27.826;2023-04-21T05:19:37;98654.03;;;9.81;100.00
11349;BME280;5729;43.570;27.826;2023-04-21T05:22:03;98657.72;;;9.73;100.00
11349;BME280;5729;43.570;27.826;2023-04-21T05:24:32;98666.06;;;9.65;100.00
11349;BME280;5729;43.570;27.826;2023-04-21T05:26:57;98670.91;;;9.56;100.00
11349;BME280;5729;43.570;27.826;2023-04-21T05:29:23;98668.22;;;9.56;100.00
11349;BME280;5729;43.570;27.826;2023-04-21T05:31:48;98663.19;;;9.54;100.00
11349;BME280;5729;43.570;27.826;2023-04-21T05:34:13;98655.66;;;9.63;100.00
11349;BME280;5729;43.570;27.826;2023-04-21T05:36:42;98642.81;;;9.53;100.00
11349;BME280;5729;43.570;27.826;2023-04-21T05:39:08;98662.34;;;9.50;100.00
11349;BME280;5729;43.570;27.826;2023-04-21T05:41:33;98670.19;;;9.59;100.00
11349;BME280;5729;43.570;27.826;2023-04-21T05:43:59;98662.31;;;9.69;100.00
11349;BME280;5729;43.570;27.826;2023-04-21T05:46:24;98657.75;;;9.51;100.00
11349;BME280;5729;43.570;27.826;2023-04-21T05:48:50;98663.00;;;9.43;100.00
11349;BME280;5729;43.570;27.826;2023-04-21T05:51:15;98657.72;;;9.47;100.00
11349;BME280;5729;43.570;27.826;2023-04-21T05:53:42;98666.16;;;9.49;100.00
11349;BME280;5729;43.570;27.826;2023-04-21T05:56:08;98668.91;;;9.30;100.00
11349;BME280;5729;43.570;27.826;2023-04-21T05:58:34;98675.16;;;9.34;100.00
11349;BME280;5729;43.570;27.826;2023-04-21T06:01:00;98668.28;;;9.36;100.00
11349;BME280;5729;43.570;27.826;2023-04-21T06:03:25;98670.31;;;9.43;100.00
11349;BME280;5729;43.570;27.826;2023-04-21T06:05:54;98672.50;;;9.60;100.00
11349;BME280;5729;43.570;27.826;2023-04-21T06:08:20;98681.16;;;9.27;100.00
11349;BME280;5729;43.570;27.826;2023-04-21T06:10:46;98674.47;;;9.40;100.00
11349;BME280;5729;43.570;27.826;2023-04-21T06:13:11;98680.75;;;9.48;100.00
11349;BME280;5729;43.570;27.826;2023-04-21T06:15:36;98676.56;;;9.51;100.00
11349;BME280;5729;43.570;27.826;2023-04-21T06:18:02;98682.38;;;9.30;100.00
11349;BME280;5729;43.570;27.826;2023-04-21T06:20:27;98676.91;;;9.26;100.00
11349;BME280;5729;43.570;27.826;2023-04-21T06:22:53;98679.09;;;9.40;100.00
11349;BME280;5729;43.570;27.826;2023-04-21T06:25:18;98673.34;;;9.41;100.00
11349;BME280;5729;43.570;27.826;2023-04-21T06:27:44;98676.09;;;9.45;100.00
11349;BME280;5729;43.570;27.826;2023-04-21T06:30:10;98677.66;;;9.46;100.00
11349;BME280;5729;43.570;27.826;2023-04-21T06:32:36;98671.16;;;9.70;100.00
11349;BME280;5729;43.570;27.826;2023-04-21T06:35:01;98672.13;;;9.84;100.00
11349;BME280;5729;43.570;27.826;2023-04-21T06:37:27;98672.88;;;9.81;100.00
11349;BME280;5729;43.570;27.826;2023-04-21T06:39:52;98675.13;;;10.02;100.00
11349;BME280;5729;43.570;27.826;2023-04-21T06:42:17;98666.25;;;10.02;100.00
11349;BME280;5729;43.570;27.826;2023-04-21T06:44:43;98666.94;;;9.72;100.00
11349;BME280;5729;43.570;27.826;2023-04-21T06:47:08;98687.66;;;9.95;100.00
11349;BME280;5729;43.570;27.826;2023-04-21T06:49:34;98690.59;;;10.09;100.00
11349;BME280;5729;43.570;27.826;2023-04-21T06:52:01;98687.38;;;10.23;100.00
11349;BME280;5729;43.570;27.826;2023-04-21T06:54:27;98679.78;;;10.32;100.00
11349;BME280;5729;43.570;27.826;2023-04-21T06:56:52;98680.78;;;10.46;100.00
11349;BME280;5729;43.570;27.826;2023-04-21T06:59:18;98683.25;;;10.59;100.00
11349;BME280;5729;43.570;27.826;2023-04-21T07:01:43;98677.09;;;10.62;100.00
11349;BME280;5729;43.570;27.826;2023-04-21T07:04:08;98671.53;;;10.77;100.00
11349;BME280;5729;43.570;27.826;2023-04-21T07:06:34;98673.56;;;10.87;100.00
11349;BME280;5729;43.570;27.826;2023-04-21T07:08:59;98664.06;;;10.97;100.00
11349;BME280;5729;43.570;27.826;2023-04-21T07:11:25;98657.78;;;11.23;100.00
11349;BME280;5729;43.570;27.826;2023-04-21T07:13:53;98656.28;;;11.29;100.00
11349;BME280;5729;43.570;27.826;2023-04-21T07:16:18;98653.28;;;11.34;100.00
11349;BME280;5729;43.570;27.826;2023-04-21T07:18:43;98657.63;;;11.09;100.00
11349;BME280;5729;43.570;27.826;2023-04-21T07:21:09;98660.41;;;11.16;100.00
11349;BME280;5729;43.570;27.826;2023-04-21T07:23:34;98660.41;;;11.56;100.00
11349;BME280;5729;43.570;27.826;2023-04-21T07:26:00;98668.41;;;11.90;100.00
11349;BME280;5729;43.570;27.826;2023-04-21T07:28:25;98655.59;;;12.34;100.00
11349;BME280;5729;43.570;27.826;2023-04-21T07:30:51;98655.81;;;12.84;100.00
11349;BME280;5729;43.570;27.826;2023-04-21T07:33:16;98661.66;;;12.93;100.00
11349;BME280;5729;43.570;27.826;2023-04-21T07:35:42;98648.25;;;13.68;100.00
11349;BME280;5729;43.570;27.826;2023-04-21T07:38:07;98648.25;;;13.82;100.00
11349;BME280;5729;43.570;27.826;2023-04-21T07:40:33;98638.50;;;14.34;100.00
11349;BME280;5729;43.570;27.826;2023-04-21T07:42:58;98638.56;;;14.02;100.00
11349;BME280;5729;43.570;27.826;2023-04-21T07:45:24;98633.47;;;14.22;100.00
11349;BME280;5729;43.570;27.826;2023-04-21T07:47:50;98642.00;;;14.24;100.00
11349;BME280;5729;43.570;27.826;2023-04-21T07:50:16;98631.72;;;14.92;100.00
11349;BME280;5729;43.570;27.826;2023-04-21T07:52:41;98627.09;;;14.85;100.00
11349;BME280;5729;43.570;27.826;2023-04-21T07:55:07;98624.44;;;15.41;100.00
11349;BME280;5729;43.570;27.826;2023-04-21T07:57:32;98622.88;;;15.43;100.00
11349;BME280;5729;43.570;27.826;2023-04-21T08:00:03;98626.69;;;15.56;100.00
11349;BME280;5729;43.570;27.826;2023-04-21T08:02:29;98616.38;;;15.30;100.00
11349;BME280;5729;43.570;27.826;2023-04-21T08:04:54;98624.38;;;15.48;100.00
11349;BME280;5729;43.570;27.826;2023-04-21T08:07:20;98620.69;;;15.20;100.00
11349;BME280;5729;43.570;27.826;2023-04-21T08:09:45;98624.38;;;15.55;100.00
11349;BME280;5729;43.570;27.826;2023-04-21T08:12:11;98626.69;;;15.53;100.00
11349;BME280;5729;43.570;27.826;2023-04-21T08:14:36;98627.28;;;15.23;100.00
11349;BME280;5729;43.570;27.826;2023-04-21T08:17:02;98636.34;;;14.99;100.00
11349;BME280;5729;43.570;27.826;2023-04-21T08:19:27;98633.28;;;15.52;100.00
11349;BME280;5729;43.570;27.826;2023-04-21T08:21:52;98625.59;;;15.91;100.00
11349;BME280;5729;43.570;27.826;2023-04-21T08:24:18;98636.69;;;15.67;100.00
11349;BME280;5729;43.570;27.826;2023-04-21T08:26:44;98637.75;;;16.21;100.00
11349;BME280;5729;43.570;27.826;2023-04-21T08:29:09;98630.22;;;16.36;100.00
11349;BME280;5729;43.570;27.826;2023-04-21T08:31:35;98627.09;;;16.00;100.00
11349;BME280;5729;43.570;27.826;2023-04-21T08:34:00;98626.59;;;15.67;100.00
11349;BME280;5729;43.570;27.826;2023-04-21T08:36:27;98639.34;;;15.15;100.00
11349;BME280;5729;43.570;27.826;2023-04-21T08:38:52;98623.34;;;15.31;100.00
11349;BME280;5729;43.570;27.826;2023-04-21T08:41:18;98625.53;;;14.88;100.00
11349;BME280;5729;43.570;27.826;2023-04-21T08:43:44;98615.34;;;15.10;100.00
11349;BME280;5729;43.570;27.826;2023-04-21T08:46:11;98628.34;;;15.36;100.00
11349;BME280;5729;43.570;27.826;2023-04-21T08:48:37;98629.97;;;15.26;100.00
11349;BME280;5729;43.570;27.826;2023-04-21T08:51:06;98619.44;;;15.84;100.00
11349;BME280;5729;43.570;27.826;2023-04-21T08:53:34;98625.31;;;16.20;100.00
11349;BME280;5729;43.570;27.826;2023-04-21T08:56:00;98632.81;;;16.46;100.00
11349;BME280;5729;43.570;27.826;2023-04-21T08:58:26;98627.41;;;16.43;100.00
11349;BME280;5729;43.570;27.826;2023-04-21T09:00:51;98627.59;;;16.25;100.00
11349;BME280;5729;43.570;27.826;2023-04-21T09:03:24;98615.03;;;16.01;100.00
11349;BME280;5729;43.570;27.826;2023-04-21T09:06:04;98633.69;;;15.47;100.00
11349;BME280;5729;43.570;27.826;2023-04-21T09:08:30;98618.31;;;15.30;100.00
11349;BME280;5729;43.570;27.826;2023-04-21T09:10:58;98625.50;;;14.92;100.00
11349;BME280;5729;43.570;27.826;2023-04-21T09:13:34;98626.28;;;14.92;100.00
11349;BME280;5729;43.570;27.826;2023-04-21T09:16:01;98628.25;;;14.84;100.00
11349;BME280;5729;43.570;27.826;2023-04-21T09:18:28;98626.31;;;14.85;100.00
11349;BME280;5729;43.570;27.826;2023-04-21T09:21:06;98626.16;;;14.19;100.00
11349;BME280;5729;43.570;27.826;2023-04-21T09:23:42;98631.25;;;13.81;100.00
11349;BME280;5729;43.570;27.826;2023-04-21T09:26:09;98629.69;;;13.91;100.00
11349;BME280;5729;43.570;27.826;2023-04-21T09:28:35;98631.63;;;13.73;100.00
11349;BME280;5729;43.570;27.826;2023-04-21T09:31:00;98623.50;;;13.59;100.00
11349;BME280;5729;43.570;27.826;2023-04-21T09:33:26;98621.59;;;13.41;100.00
11349;BME280;5729;43.570;27.826;2023-04-21T09:35:52;98627.38;;;13.36;100.00
11349;BME280;5729;43.570;27.826;2023-04-21T09:38:21;98617.72;;;13.74;100.00
11349;BME280;5729;43.570;27.826;2023-04-21T09:40:55;98614.88;;;14.42;100.00
11349;BME280;5729;43.570;27.826;2023-04-21T09:43:21;98623.09;;;14.10;100.00
11349;BME280;5729;43.570;27.826;2023-04-21T09:45:47;98621.44;;;14.34;100.00
11349;BME280;5729;43.570;27.826;2023-04-21T09:48:16;98610.28;;;14.17;100.00
11349;BME280;5729;43.570;27.826;2023-04-21T09:50:42;98614.19;;;13.95;100.00
11349;BME280;5729;43.570;27.826;2023-04-21T09:53:14;98614.22;;;13.74;100.00
11349;BME280;5729;43.570;27.826;2023-04-21T09:55:41;98610.34;;;13.57;100.00
11349;BME280;5729;43.570;27.826;2023-04-21T09:58:08;98616.53;;;13.58;100.00
11349;BME280;5729;43.570;27.826;2023-04-21T10:00:36;98614.59;;;13.44;100.00
11349;BME280;5729;43.570;27.826;2023-04-21T10:03:04;98621.97;;;13.54;100.00
11349;BME280;5729;43.570;27.826;2023-04-21T10:05:35;98623.50;;;13.48;100.00
11349;BME280;5729;43.570;27.826;2023-04-21T10:08:00;98615.41;;;13.41;100.00
11349;BME280;5729;43.570;27.826;2023-04-21T10:10:27;98621.56;;;13.45;100.00
11349;BME280;5729;43.570;27.826;2023-04-21T10:12:56;98628.50;;;13.21;100.00
11349;BME280;5729;43.570;27.826;2023-04-21T10:15:38;98626.22;;;13.30;100.00
11349;BME280;5729;43.570;27.826;2023-04-21T10:18:21;98623.44;;;13.13;100.00
11349;BME280;5729;43.570;27.826;2023-04-21T10:21:05;98614.19;;;13.21;100.00
11349;BME280;5729;43.570;27.826;2023-04-21T10:23:44;98618.06;;;13.44;100.00
11349;BME280;5729;43.570;27.826;2023-04-21T10:26:25;98627.00;;;13.52;100.00
11349;BME280;5729;43.570;27.826;2023-04-21T10:28:59;98620.03;;;13.62;100.00
11349;BME280;5729;43.570;27.826;2023-04-21T10:37:07;98620.41;;;13.39;100.00
11349;BME280;5729;43.570;27.826;2023-04-21T10:44:43;98615.34;;;13.91;100.00
11349;BME280;5729;43.570;27.826;2023-04-21T10:47:09;98608.38;;;14.07;100.00
11349;BME280;5729;43.570;27.826;2023-04-21T10:49:39;98618.34;;;14.35;100.00
11349;BME280;5729;43.570;27.826;2023-04-21T10:52:07;98617.22;;;14.26;100.00
11349;BME280;5729;43.570;27.826;2023-04-21T10:57:07;98617.00;;;14.89;100.00
11349;BME280;5729;43.570;27.826;2023-04-21T10:59:34;98611.81;;;14.29;100.00
11349;BME280;5729;43.570;27.826;2023-04-21T11:02:01;98624.59;;;14.14;100.00
11349;BME280;5729;43.570;27.826;2023-04-21T11:04:27;98618.47;;;13.78;100.00
11349;BME280;5729;43.570;27.826;2023-04-21T11:07:15;98623.13;;;13.50;100.00
11349;BME280;5729;43.570;27.826;2023-04-21T11:09:42;98628.13;;;13.37;100.00
11349;BME280;5729;43.570;27.826;2023-04-21T11:12:14;98636.50;;;12.89;100.00
11349;BME280;5729;43.570;27.826;2023-04-21T11:14:42;98642.28;;;12.81;100.00
11349;BME280;5729;43.570;27.826;2023-04-21T11:17:15;98637.19;;;12.65;100.00
11349;BME280;5729;43.570;27.826;2023-04-21T11:19:44;98640.94;;;12.35;100.00
11349;BME280;5729;43.570;27.826;2023-04-21T11:22:10;98652.59;;;12.50;100.00
11349;BME280;5729;43.570;27.826;2023-04-21T11:24:36;98641.44;;;12.66;100.00
11349;BME280;5729;43.570;27.826;2023-04-21T11:27:01;98655.66;;;12.49;100.00
11349;BME280;5729;43.570;27.826;2023-04-21T11:29:27;98640.28;;;12.67;100.00
11349;BME280;5729;43.570;27.826;2023-04-21T11:31:55;98640.03;;;13.11;100.00
11349;BME280;5729;43.570;27.826;2023-04-21T11:34:25;98637.41;;;13.32;100.00
11349;BME280;5729;43.570;27.826;2023-04-21T11:36:51;98641.25;;;13.21;100.00
11349;BME280;5729;43.570;27.826;2023-04-21T11:39:18;98649.00;;;13.36;100.00
11349;BME280;5729;43.570;27.826;2023-04-21T11:41:47;98646.72;;;13.53;100.00
11349;BME280;5729;43.570;27.826;2023-04-21T11:44:29;98650.59;;;13.80;100.00
11349;BME280;5729;43.570;27.826;2023-04-21T11:46:55;98657.94;;;13.79;100.00
11349;BME280;5729;43.570;27.826;2023-04-21T11:49:24;98634.72;;;13.78;100.00
11349;BME280;5729;43.570;27.826;2023-04-21T11:51:50;98648.22;;;14.00;100.00
11349;BME280;5729;43.570;27.826;2023-04-21T11:54:17;98648.28;;;13.64;100.00
11349;BME280;5729;43.570;27.826;2023-04-21T11:56:45;98651.75;;;13.65;100.00
11349;BME280;5729;43.570;27.826;2023-04-21T11:59:13;98648.25;;;13.36;100.00
11349;BME280;5729;43.570;27.826;2023-04-21T12:01:46;98654.41;;;13.22;100.00
11349;BME280;5729;43.570;27.826;2023-04-21T12:04:22;98659.09;;;13.39;100.00
11349;BME280;5729;43.570;27.826;2023-04-21T12:07:01;98645.56;;;13.61;100.00
11349;BME280;5729;43.570;27.826;2023-04-21T12:09:28;98657.91;;;14.04;100.00
11349;BME280;5729;43.570;27.826;2023-04-21T12:11:56;98648.19;;;14.32;100.00
11349;BME280;5729;43.570;27.826;2023-04-21T12:14:23;98645.06;;;14.51;100.00
11349;BME280;5729;43.570;27.826;2023-04-21T12:16:53;98626.03;;;14.62;100.00
11349;BME280;5729;43.570;27.826;2023-04-21T12:19:24;98653.19;;;14.51;100.00
11349;BME280;5729;43.570;27.826;2023-04-21T12:21:58;98651.28;;;14.34;100.00
11349;BME280;5729;43.570;27.826;2023-04-21T12:24:24;98659.75;;;14.61;100.00
11349;BME280;5729;43.570;27.826;2023-04-21T12:26:49;98655.44;;;14.74;100.00
11349;BME280;5729;43.570;27.826;2023-04-21T12:29:15;98660.72;;;15.09;100.00
11349;BME280;5729;43.570;27.826;2023-04-21T12:31:40;98655.41;;;15.50;100.00
11349;BME280;5729;43.570;27.826;2023-04-21T12:34:05;98649.09;;;15.68;100.00
11349;BME280;5729;43.570;27.826;2023-04-21T12:36:31;98658.66;;;15.24;100.00
11349;BME280;5729;43.570;27.826;2023-04-21T12:38:56;98658.34;;;15.77;100.00
11349;BME280;5729;43.570;27.826;2023-04-21T12:41:22;98644.75;;;15.77;100.00
11349;BME280;5729;43.570;27.826;2023-04-21T12:43:47;98632.06;;;15.60;100.00
11349;BME280;5729;43.570;27.826;2023-04-21T12:46:13;98637.94;;;16.00;100.00
11349;BME280;5729;43.570;27.826;2023-04-21T12:48:38;98628.72;;;15.90;100.00
11349;BME280;5729;43.570;27.826;2023-04-21T12:51:03;98640.34;;;16.31;100.00
11349;BME280;5729;43.570;27.826;2023-04-21T12:53:30;98646.66;;;17.20;100.00
11349;BME280;5729;43.570;27.826;2023-04-21T12:55:56;98650.81;;;17.82;100.00
11349;BME280;5729;43.570;27.826;2023-04-21T12:58:21;98652.47;;;17.49;96.18
11349;BME280;5729;43.570;27.826;2023-04-21T13:00:47;98651.66;;;16.60;99.30